createdAt,value
2018-01-08T00:01:03.042Z,99.90
2018-01-08T00:03:30.812Z,99.90
2018-01-08T00:05:58.395Z,99.90
2018-01-08T00:08:25.853Z,99.90
2018-01-08T00:10:53.321Z,99.90
2018-01-08T00:13:20.780Z,99.90
2018-01-08T00:15:48.965Z,99.90
2018-01-08T00:18:16.417Z,99.90
2018-01-08T00:20:43.884Z,99.90
2018-01-08T00:23:11.424Z,99.90
2018-01-08T00:25:38.890Z,99.90
2018-01-08T00:28:06.356Z,99.90
2018-01-08T00:30:33.833Z,99.90
2018-01-08T00:33:02.071Z,99.90
2018-01-08T00:35:29.532Z,99.90
2018-01-08T00:37:56.996Z,99.90
2018-01-08T00:40:25.965Z,99.90
2018-01-08T00:42:53.429Z,99.90
2018-01-08T00:45:20.893Z,99.90
2018-01-08T00:47:48.367Z,99.90
2018-01-08T00:50:15.850Z,99.90
2018-01-08T00:52:43.325Z,99.90
2018-01-08T00:55:10.808Z,99.90
2018-01-08T00:57:38.290Z,99.90
2018-01-08T01:00:05.758Z,99.90
2018-01-08T01:02:33.980Z,99.90
2018-01-08T01:05:01.448Z,99.90
2018-01-08T01:07:29.032Z,99.90
2018-01-08T01:09:56.604Z,99.90
2018-01-08T01:12:24.057Z,99.90
2018-01-08T01:14:51.516Z,99.90
2018-01-08T01:17:19.740Z,99.90
2018-01-08T01:19:47.204Z,99.90
2018-01-08T01:22:14.684Z,99.90
2018-01-08T01:24:42.130Z,99.90
2018-01-08T01:27:09.708Z,99.90
2018-01-08T01:29:37.313Z,99.90
2018-01-08T01:32:04.871Z,99.90
2018-01-08T01:34:32.340Z,99.90
2018-01-08T01:36:59.809Z,99.90
2018-01-08T01:39:27.273Z,99.90
2018-01-08T01:41:54.740Z,99.90
2018-01-08T01:44:22.204Z,99.90
2018-01-08T01:46:49.666Z,99.90
2018-01-08T01:49:20.896Z,99.90
2018-01-08T01:51:48.364Z,99.90
2018-01-08T01:54:17.348Z,99.90
2018-01-08T01:56:44.804Z,99.90
2018-01-08T01:59:12.281Z,99.90
2018-01-08T02:01:39.793Z,99.90
2018-01-08T02:04:07.262Z,99.90
2018-01-08T02:06:34.729Z,99.90
2018-01-08T02:09:02.205Z,99.90
2018-01-08T02:11:29.679Z,99.90
2018-01-08T02:13:57.136Z,99.90
2018-01-08T02:16:25.450Z,99.90
2018-01-08T02:18:53.062Z,99.90
2018-01-08T02:21:22.033Z,99.90
2018-01-08T02:23:49.500Z,99.90
2018-01-08T02:26:16.976Z,99.90
2018-01-08T02:28:45.196Z,99.90
2018-01-08T02:31:12.656Z,99.90
2018-01-08T02:33:40.954Z,99.90
2018-01-08T02:36:08.420Z,99.90
2018-01-08T02:38:35.889Z,99.90
2018-01-08T02:41:03.356Z,99.90
2018-01-08T02:43:31.577Z,99.90
2018-01-08T02:45:59.052Z,99.90
2018-01-08T02:48:26.552Z,99.90
2018-01-08T02:50:54.777Z,99.90
2018-01-08T02:53:22.304Z,99.90
2018-01-08T02:55:49.776Z,99.90
2018-01-08T02:58:17.236Z,99.90
2018-01-08T03:00:44.704Z,99.90
2018-01-08T03:03:12.178Z,99.90
2018-01-08T03:05:39.632Z,99.90
2018-01-08T03:08:07.093Z,99.90
2018-01-08T03:10:34.568Z,99.90
2018-01-08T03:13:02.025Z,99.90
2018-01-08T03:15:29.493Z,99.90
2018-01-08T03:17:57.716Z,99.90
2018-01-08T03:20:25.192Z,99.90
2018-01-08T03:22:52.644Z,99.90
2018-01-08T03:25:20.107Z,99.90
2018-01-08T03:27:47.584Z,99.90
2018-01-08T03:30:15.131Z,99.90
2018-01-08T03:32:44.109Z,99.90
2018-01-08T03:35:11.572Z,99.90
2018-01-08T03:37:39.036Z,99.90
2018-01-08T03:40:06.492Z,99.90
2018-01-08T03:42:34.728Z,99.90
2018-01-08T03:45:02.186Z,99.90
2018-01-08T03:47:29.657Z,99.90
2018-01-08T03:49:57.117Z,99.90
2018-01-08T03:52:24.586Z,99.90
2018-01-08T03:54:52.052Z,99.90
2018-01-08T03:57:19.684Z,99.90
2018-01-08T03:59:47.145Z,99.90
2018-01-08T04:02:14.612Z,99.90
2018-01-08T04:04:42.085Z,99.90
2018-01-08T04:07:09.552Z,99.90
2018-01-08T04:09:37.017Z,99.90
2018-01-08T04:12:05.246Z,99.90
2018-01-08T04:14:32.719Z,99.90
2018-01-08T04:17:00.209Z,99.90
2018-01-08T04:19:28.447Z,99.90
2018-01-08T04:21:55.981Z,99.90
2018-01-08T04:24:23.453Z,99.90
2018-01-08T04:26:50.908Z,99.90
2018-01-08T04:29:18.373Z,99.90
2018-01-08T04:31:45.889Z,99.90
2018-01-08T04:34:13.529Z,99.90
2018-01-08T04:36:41.769Z,99.90
2018-01-08T04:39:09.267Z,99.90
2018-01-08T04:41:36.778Z,99.90
2018-01-08T04:44:04.244Z,99.90
2018-01-08T04:46:31.708Z,99.90
2018-01-08T04:48:59.173Z,99.90
2018-01-08T04:51:26.741Z,99.90
2018-01-08T04:53:54.189Z,99.90
2018-01-08T04:56:21.659Z,99.90
2018-01-08T04:58:49.112Z,99.90
2018-01-08T05:01:16.589Z,99.90
2018-01-08T05:03:44.829Z,99.90
2018-01-08T05:06:12.289Z,99.90
2018-01-08T05:08:39.752Z,99.90
2018-01-08T05:11:07.394Z,99.90
2018-01-08T05:13:34.973Z,99.90
2018-01-08T05:16:02.425Z,99.90
2018-01-08T05:18:30.009Z,99.90
2018-01-08T05:20:58.257Z,99.90
2018-01-08T05:23:25.724Z,99.90
2018-01-08T05:25:53.257Z,99.90
2018-01-08T05:28:20.746Z,99.90
2018-01-08T05:30:48.316Z,99.90
2018-01-08T05:33:16.600Z,99.90
2018-01-08T05:35:44.860Z,99.90
2018-01-08T05:38:13.104Z,99.90
2018-01-08T05:40:40.608Z,99.90
2018-01-08T05:43:08.832Z,99.90
2018-01-08T05:45:36.323Z,99.90
2018-01-08T05:48:04.565Z,99.90
2018-01-08T05:50:32.076Z,99.90
2018-01-08T05:52:59.564Z,99.90
2018-01-08T05:55:27.015Z,99.90
2018-01-08T05:57:54.622Z,99.90
2018-01-08T06:00:22.154Z,99.90
2018-01-08T06:02:49.641Z,99.90
2018-01-08T06:05:17.300Z,99.90
2018-01-08T06:07:45.558Z,99.90
2018-01-08T06:10:13.033Z,99.90
2018-01-08T06:12:40.541Z,99.90
2018-01-08T06:15:08.003Z,99.90
2018-01-08T06:17:35.528Z,99.90
2018-01-08T06:20:03.110Z,99.90
2018-01-08T06:22:30.637Z,99.90
2018-01-08T06:24:58.214Z,99.90
2018-01-08T06:27:25.673Z,99.90
2018-01-08T06:29:53.140Z,99.90
2018-01-08T06:32:20.706Z,99.90
2018-01-08T06:34:48.299Z,99.90
2018-01-08T06:37:15.835Z,99.90
2018-01-08T06:39:43.348Z,99.90
2018-01-08T06:42:11.685Z,99.90
2018-01-08T06:44:39.207Z,99.90
2018-01-08T06:47:06.708Z,99.90
2018-01-08T06:49:34.199Z,99.90
2018-01-08T06:52:02.437Z,99.90
2018-01-08T06:54:29.924Z,99.90
2018-01-08T06:56:58.189Z,99.90
2018-01-08T06:59:25.679Z,99.90
2018-01-08T07:01:53.149Z,99.90
2018-01-08T07:04:20.689Z,99.90
2018-01-08T07:06:48.208Z,99.90
2018-01-08T07:09:15.729Z,99.90
2018-01-08T07:11:43.349Z,99.90
2018-01-08T07:14:11.752Z,99.90
2018-01-08T07:16:39.380Z,99.90
2018-01-08T07:19:07.325Z,99.90
2018-01-08T07:21:34.793Z,99.90
2018-01-08T07:24:02.541Z,99.90
2018-01-08T07:26:30.206Z,99.90
2018-01-08T07:28:57.687Z,99.90
2018-01-08T07:31:25.363Z,99.90
2018-01-08T07:33:54.019Z,99.90
2018-01-08T07:36:21.646Z,99.90
2018-01-08T07:38:49.105Z,99.90
2018-01-08T07:41:16.616Z,99.90
2018-01-08T07:43:44.873Z,99.90
2018-01-08T07:46:12.424Z,99.90
2018-01-08T07:48:39.973Z,99.90
2018-01-08T07:51:07.444Z,99.90
2018-01-08T07:53:35.208Z,99.90
2018-01-08T07:56:02.837Z,99.90
2018-01-08T07:58:30.389Z,99.90
2018-01-08T08:00:58.122Z,99.90
2018-01-08T08:03:26.432Z,99.90
2018-01-08T08:05:53.913Z,99.90
2018-01-08T08:08:21.390Z,99.90
2018-01-08T08:10:48.860Z,99.90
2018-01-08T08:13:16.328Z,99.90
2018-01-08T08:15:44.574Z,99.90
2018-01-08T08:18:12.040Z,99.90
2018-01-08T08:20:39.592Z,99.90
2018-01-08T08:23:07.193Z,99.90
2018-01-08T08:25:34.823Z,99.90
2018-01-08T08:28:02.493Z,99.90
2018-01-08T08:30:30.728Z,99.90
2018-01-08T08:32:58.245Z,99.90
2018-01-08T08:35:25.721Z,99.90
2018-01-08T08:37:53.185Z,99.90
2018-01-08T08:40:20.670Z,99.90
2018-01-08T08:42:48.141Z,99.90
2018-01-08T08:45:15.626Z,99.90
2018-01-08T08:47:43.085Z,99.90
2018-01-08T08:50:10.565Z,99.90
2018-01-08T08:52:38.050Z,99.90
2018-01-08T08:55:05.523Z,99.90
2018-01-08T08:57:33.001Z,99.90
2018-01-08T09:00:01.287Z,99.90
2018-01-08T09:02:29.529Z,99.90
2018-01-08T09:04:57.000Z,99.90
2018-01-08T09:07:25.268Z,99.90
2018-01-08T09:09:52.724Z,99.90
2018-01-08T09:12:20.193Z,99.90
2018-01-08T09:14:48.413Z,99.90
2018-01-08T09:17:15.884Z,99.90
2018-01-08T09:19:43.356Z,99.90
2018-01-08T09:22:10.823Z,99.90
2018-01-08T09:24:40.003Z,99.90
2018-01-08T09:27:07.472Z,99.90
2018-01-08T09:29:35.132Z,99.90
2018-01-08T09:32:02.622Z,99.90
2018-01-08T09:34:30.868Z,99.90
2018-01-08T09:36:58.345Z,99.90
2018-01-08T09:39:26.581Z,99.90
2018-01-08T09:41:54.056Z,99.90
2018-01-08T09:44:22.295Z,99.90
2018-01-08T09:46:49.781Z,99.90
2018-01-08T09:49:17.360Z,99.90
2018-01-08T09:51:44.820Z,99.90
2018-01-08T09:54:13.075Z,99.90
2018-01-08T09:56:40.556Z,99.90
2018-01-08T09:59:08.791Z,99.90
2018-01-08T10:01:36.256Z,99.90
2018-01-08T10:04:15.771Z,99.90
2018-01-08T10:06:55.080Z,99.90
2018-01-08T10:09:34.768Z,99.90
2018-01-08T10:12:14.132Z,99.90
2018-01-08T10:14:53.558Z,99.90
2018-01-08T10:17:32.949Z,99.90
2018-01-08T10:20:00.422Z,99.90
2018-01-08T10:22:27.883Z,99.90
2018-01-08T10:24:55.366Z,99.90
2018-01-08T10:27:22.949Z,99.90
2018-01-08T10:29:51.245Z,99.90
2018-01-08T10:32:18.752Z,99.90
2018-01-08T10:34:46.185Z,99.90
2018-01-08T10:37:13.759Z,99.90
2018-01-08T10:39:41.237Z,99.90
2018-01-08T10:42:14.505Z,99.90
2018-01-08T10:44:47.644Z,99.90
2018-01-08T10:47:21.685Z,99.90
2018-01-08T10:49:54.772Z,99.90
2018-01-08T10:52:21.744Z,99.90
2018-01-08T10:54:51.713Z,99.90
2018-01-08T10:57:19.192Z,99.90
2018-01-08T10:59:46.654Z,99.90
2018-01-08T11:02:19.840Z,99.90
2018-01-08T11:04:47.365Z,99.90
2018-01-08T11:07:15.623Z,99.90
2018-01-08T11:09:43.164Z,99.90
2018-01-08T11:12:10.636Z,99.90
2018-01-08T11:14:38.111Z,99.90
2018-01-08T11:17:06.360Z,99.90
2018-01-08T11:19:33.828Z,99.90
2018-01-08T11:22:01.339Z,99.90
2018-01-08T11:24:28.824Z,99.90
2018-01-08T11:26:56.462Z,99.90
2018-01-08T11:29:23.963Z,99.90
2018-01-08T11:31:52.196Z,99.90
2018-01-08T11:34:19.684Z,99.90
2018-01-08T11:36:47.165Z,99.90
2018-01-08T11:39:15.398Z,99.90
2018-01-08T11:41:42.931Z,99.90
2018-01-08T11:44:10.441Z,99.90
2018-01-08T11:46:37.921Z,99.90
2018-01-08T11:49:05.381Z,99.90
2018-01-08T11:51:32.870Z,99.90
2018-01-08T11:54:00.331Z,99.90
2018-01-08T11:56:27.799Z,99.90
2018-01-08T11:58:55.262Z,99.90
2018-01-08T12:01:22.743Z,99.90
2018-01-08T12:03:50.976Z,99.90
2018-01-08T12:06:19.197Z,99.90
2018-01-08T12:08:46.665Z,99.90
2018-01-08T12:11:14.952Z,99.90
2018-01-08T12:13:42.476Z,99.90
2018-01-08T12:16:09.961Z,99.90
2018-01-08T12:18:38.192Z,99.90
2018-01-08T12:21:05.676Z,99.90
2018-01-08T12:23:33.140Z,99.90
2018-01-08T12:26:00.597Z,99.90
2018-01-08T12:28:28.836Z,99.90
2018-01-08T12:30:56.401Z,99.90
2018-01-08T12:33:24.812Z,99.90
2018-01-08T12:35:53.042Z,99.90
2018-01-08T12:38:20.518Z,99.90
2018-01-08T12:40:48.064Z,99.90
2018-01-08T12:43:15.534Z,99.90
2018-01-08T12:45:43.184Z,99.90
2018-01-08T12:48:10.726Z,99.90
2018-01-08T12:50:38.441Z,99.90
2018-01-08T12:53:06.677Z,99.90
2018-01-08T12:55:34.152Z,99.90
2018-01-08T12:58:01.618Z,99.90
2018-01-08T13:00:29.090Z,99.40
2018-01-08T13:02:57.325Z,99.40
2018-01-08T13:05:24.996Z,99.30
2018-01-08T13:07:52.706Z,98.90
2018-01-08T13:10:20.177Z,98.30
2018-01-08T13:12:47.658Z,98.60
2018-01-08T13:15:15.904Z,98.80
2018-01-08T13:17:43.436Z,98.80
2018-01-08T13:20:11.666Z,99.00
2018-01-08T13:22:39.144Z,99.00
2018-01-08T13:25:06.614Z,99.00
2018-01-08T13:27:34.274Z,98.80
2018-01-08T13:30:02.550Z,99.40
2018-01-08T13:32:30.836Z,99.50
2018-01-08T13:34:59.095Z,99.80
2018-01-08T13:37:26.560Z,99.80
2018-01-08T13:39:54.814Z,99.90
2018-01-08T13:42:22.282Z,99.90
2018-01-08T13:44:49.772Z,99.90
2018-01-08T13:47:17.252Z,99.90
2018-01-08T13:49:44.729Z,99.90
2018-01-08T13:52:13.001Z,99.90
2018-01-08T13:54:40.492Z,99.90
2018-01-08T13:57:07.969Z,99.90
2018-01-08T13:59:36.197Z,99.90
2018-01-08T14:02:03.685Z,99.90
2018-01-08T14:04:31.200Z,99.90
2018-01-08T14:06:58.721Z,99.90
2018-01-08T14:09:26.205Z,99.90
2018-01-08T14:11:53.681Z,99.90
2018-01-08T14:14:21.170Z,99.90
2018-01-08T14:16:48.672Z,99.90
2018-01-08T14:19:16.129Z,99.90
2018-01-08T14:21:43.697Z,99.90
2018-01-08T14:24:11.176Z,99.90
2018-01-08T14:26:38.656Z,99.90
2018-01-08T14:29:06.126Z,99.90
2018-01-08T14:31:34.540Z,99.90
2018-01-08T14:34:02.026Z,99.90
2018-01-08T14:36:29.494Z,99.90
2018-01-08T14:38:56.961Z,99.90
2018-01-08T14:41:24.424Z,99.90
2018-01-08T14:43:51.902Z,99.90
2018-01-08T14:46:20.273Z,99.90
2018-01-08T14:48:48.552Z,99.90
2018-01-08T14:51:16.777Z,99.90
2018-01-08T14:53:44.261Z,99.90
2018-01-08T14:56:13.240Z,99.90
2018-01-08T14:58:40.709Z,99.90
2018-01-08T15:01:10.159Z,99.90
2018-01-08T15:03:38.413Z,99.90
2018-01-08T15:06:06.650Z,99.90
2018-01-08T15:08:34.129Z,99.90
2018-01-08T15:11:02.384Z,99.90
2018-01-08T15:13:29.935Z,99.90
2018-01-08T15:15:57.418Z,99.90
2018-01-08T15:18:24.896Z,99.90
2018-01-08T15:20:52.425Z,99.90
2018-01-08T15:23:21.002Z,99.90
2018-01-08T15:25:48.505Z,99.90
2018-01-08T15:28:15.961Z,99.90
2018-01-08T15:30:44.358Z,99.90
2018-01-08T15:33:11.969Z,99.90
2018-01-08T15:35:40.209Z,99.90
2018-01-08T15:38:07.700Z,99.90
2018-01-08T15:40:35.161Z,99.90
2018-01-08T15:43:03.410Z,99.90
2018-01-08T15:45:30.874Z,99.90
2018-01-08T15:47:58.350Z,99.90
2018-01-08T15:50:27.124Z,99.90
2018-01-08T15:52:54.844Z,99.90
2018-01-08T15:55:22.298Z,99.90
2018-01-08T15:57:49.757Z,99.90
2018-01-08T16:00:17.224Z,99.90
2018-01-08T16:02:44.722Z,99.90
2018-01-08T16:05:12.179Z,99.90
2018-01-08T16:07:39.633Z,99.90
2018-01-08T16:10:07.149Z,99.90
2018-01-08T16:12:34.684Z,99.90
2018-01-08T16:15:02.164Z,99.90
2018-01-08T16:17:29.640Z,99.90
2018-01-08T16:19:57.120Z,99.90
2018-01-08T16:22:24.599Z,99.90
2018-01-08T16:24:52.833Z,99.90
2018-01-08T16:27:20.315Z,99.90
2018-01-08T16:29:48.653Z,99.90
2018-01-08T16:32:16.120Z,99.90
2018-01-08T16:34:43.715Z,99.90
2018-01-08T16:37:12.777Z,99.90
2018-01-08T16:39:40.265Z,99.90
2018-01-08T16:42:08.513Z,99.90
2018-01-08T16:44:37.093Z,99.90
2018-01-08T16:47:04.619Z,99.90
2018-01-08T16:49:33.073Z,99.90
2018-01-08T16:52:01.425Z,99.90
2018-01-08T16:54:28.903Z,99.90
2018-01-08T16:56:57.137Z,99.90
2018-01-08T16:59:24.606Z,99.90
2018-01-08T17:01:52.186Z,99.90
2018-01-08T17:04:21.234Z,99.90
2018-01-08T17:06:48.711Z,99.90
2018-01-08T17:09:16.205Z,99.90
2018-01-08T17:11:45.443Z,99.90
2018-01-08T17:14:13.062Z,99.90
2018-01-08T17:16:41.317Z,99.90
2018-01-08T17:19:08.802Z,99.90
2018-01-08T17:21:37.213Z,99.90
2018-01-08T17:24:04.829Z,99.90
2018-01-08T17:26:32.433Z,99.90
2018-01-08T17:29:00.065Z,99.90
2018-01-08T17:31:28.324Z,99.90
2018-01-08T17:33:55.789Z,99.90
2018-01-08T17:36:24.028Z,99.90
2018-01-08T17:38:51.501Z,99.90
2018-01-08T17:41:18.992Z,99.90
2018-01-08T17:43:47.496Z,99.90
2018-01-08T17:46:15.151Z,99.90
2018-01-08T17:48:42.620Z,99.90
2018-01-08T17:51:10.104Z,99.90
2018-01-08T17:53:37.628Z,99.90
2018-01-08T17:56:05.098Z,99.90
2018-01-08T17:58:32.653Z,99.90
2018-01-08T18:01:01.146Z,99.90
2018-01-08T18:03:28.733Z,99.90
2018-01-08T18:05:57.886Z,99.90
2018-01-08T18:08:25.394Z,99.90
2018-01-08T18:10:52.862Z,99.90
2018-01-08T18:13:21.240Z,99.90
2018-01-08T18:15:50.398Z,99.90
2018-01-08T18:18:17.884Z,99.90
2018-01-08T18:20:46.149Z,99.90
2018-01-08T18:23:13.616Z,99.90
2018-01-08T18:25:41.893Z,99.90
2018-01-08T18:28:10.168Z,99.90
2018-01-08T18:30:38.677Z,99.90
2018-01-08T18:33:06.192Z,99.90
2018-01-08T18:35:34.676Z,99.90
2018-01-08T18:38:02.144Z,99.90
2018-01-08T18:40:30.394Z,99.90
2018-01-08T18:42:57.880Z,99.90
2018-01-08T18:45:26.138Z,99.90
2018-01-08T18:47:53.614Z,99.90
2018-01-08T18:50:21.872Z,99.90
2018-01-08T18:52:50.015Z,99.90
2018-01-08T18:55:17.481Z,99.90
2018-01-08T18:57:44.977Z,99.90
2018-01-08T19:00:13.219Z,99.90
2018-01-08T19:02:40.704Z,99.90
2018-01-08T19:05:08.933Z,99.90
2018-01-08T19:07:36.408Z,99.90
2018-01-08T19:10:03.884Z,99.90
2018-01-08T19:12:31.357Z,99.90
2018-01-08T19:14:59.597Z,99.90
2018-01-08T19:17:27.143Z,99.90
2018-01-08T19:19:54.638Z,99.90
2018-01-08T19:22:22.934Z,99.90
2018-01-08T19:24:50.411Z,99.90
2018-01-08T19:27:17.901Z,99.90
2018-01-08T19:29:45.376Z,99.90
2018-01-08T19:32:12.864Z,99.90
2018-01-08T19:34:40.472Z,99.90
2018-01-08T19:37:07.984Z,99.90
2018-01-08T19:39:35.605Z,99.90
2018-01-08T19:42:03.138Z,99.90
2018-01-08T19:44:30.619Z,99.90
2018-01-08T19:46:58.114Z,99.90
2018-01-08T19:49:26.366Z,99.90
2018-01-08T19:51:54.614Z,99.90
2018-01-08T19:54:22.301Z,99.90
2018-01-08T19:56:50.526Z,99.90
2018-01-08T19:59:18.858Z,99.90
2018-01-08T20:01:46.659Z,99.90
2018-01-08T20:04:14.122Z,99.90
2018-01-08T20:06:41.592Z,99.90
2018-01-08T20:09:09.957Z,99.90
2018-01-08T20:11:38.293Z,99.90
2018-01-08T20:14:06.521Z,99.90
2018-01-08T20:16:34.004Z,99.90
2018-01-08T20:19:01.485Z,99.90
2018-01-08T20:21:29.728Z,99.90
2018-01-08T20:23:57.214Z,99.90
2018-01-08T20:26:25.437Z,99.90
2018-01-08T20:28:52.961Z,99.90
2018-01-08T20:31:21.193Z,99.90
2018-01-08T20:33:48.689Z,99.90
2018-01-08T20:36:17.230Z,99.90
2018-01-08T20:38:44.940Z,99.90
2018-01-08T20:41:13.177Z,99.90
2018-01-08T20:43:40.703Z,99.90
2018-01-08T20:46:08.220Z,99.90
2018-01-08T20:48:36.552Z,99.90
2018-01-08T20:51:04.150Z,99.90
2018-01-08T20:53:31.651Z,99.90
2018-01-08T20:55:59.217Z,99.90
2018-01-08T20:58:26.835Z,99.90
2018-01-08T21:00:55.226Z,99.90
2018-01-08T21:03:25.329Z,99.90
2018-01-08T21:05:53.578Z,99.90
2018-01-08T21:08:21.886Z,99.90
2018-01-08T21:10:51.093Z,99.90
2018-01-08T21:13:18.556Z,99.90
2018-01-08T21:15:47.225Z,99.90
2018-01-08T21:18:14.684Z,99.90
2018-01-08T21:20:43.509Z,99.90
2018-01-08T21:23:10.986Z,99.90
2018-01-08T21:25:38.448Z,99.90
2018-01-08T21:28:05.933Z,99.90
2018-01-08T21:30:34.174Z,99.90
2018-01-08T21:33:01.660Z,99.90
2018-01-08T21:35:29.135Z,99.90
2018-01-08T21:37:57.445Z,99.90
2018-01-08T21:40:24.928Z,99.90
2018-01-08T21:42:52.412Z,99.90
2018-01-08T21:45:19.894Z,99.90
2018-01-08T21:47:47.372Z,99.90
2018-01-08T21:50:15.752Z,99.90
2018-01-08T21:52:43.237Z,99.90
2018-01-08T21:55:10.715Z,99.90
2018-01-08T21:57:38.303Z,99.90
2018-01-08T22:00:07.527Z,99.90
2018-01-08T22:02:34.993Z,99.90
2018-01-08T22:05:03.291Z,99.90
2018-01-08T22:07:30.757Z,99.90
2018-01-08T22:09:58.243Z,99.90
2018-01-08T22:12:26.604Z,99.90
2018-01-08T22:14:54.226Z,99.90
2018-01-08T22:17:21.835Z,99.90
2018-01-08T22:19:50.080Z,99.90
2018-01-08T22:22:17.556Z,99.90
2018-01-08T22:24:45.782Z,99.90
2018-01-08T22:27:13.275Z,99.90
2018-01-08T22:29:40.743Z,99.90
2018-01-08T22:32:08.233Z,99.90
2018-01-08T22:34:35.785Z,99.90
2018-01-08T22:37:03.246Z,99.90
2018-01-08T22:39:30.742Z,99.90
2018-01-08T22:41:58.216Z,99.90
2018-01-08T22:44:26.600Z,99.90
2018-01-08T22:46:54.072Z,99.90
2018-01-08T22:49:23.332Z,99.90
2018-01-08T22:51:50.808Z,99.90
2018-01-08T22:54:19.278Z,99.90
2018-01-08T22:56:46.763Z,99.90
2018-01-08T22:59:14.386Z,99.90
2018-01-08T23:01:41.873Z,99.90
2018-01-08T23:04:09.568Z,99.90
2018-01-08T23:06:37.944Z,99.90
2018-01-08T23:09:06.330Z,99.90
2018-01-08T23:11:33.942Z,99.90
2018-01-08T23:14:02.917Z,99.90
2018-01-08T23:16:30.394Z,99.90
2018-01-08T23:18:58.689Z,99.90
2018-01-08T23:21:26.930Z,99.90
2018-01-08T23:23:54.489Z,99.90
2018-01-08T23:26:22.933Z,99.90
2018-01-08T23:28:50.405Z,99.90
2018-01-08T23:31:17.864Z,99.90
2018-01-08T23:33:45.357Z,99.90
2018-01-08T23:36:12.820Z,99.90
2018-01-08T23:38:40.292Z,99.90
2018-01-08T23:41:09.245Z,99.90
2018-01-08T23:43:36.804Z,99.90
2018-01-08T23:46:04.341Z,99.90
2018-01-08T23:48:31.824Z,99.90
2018-01-08T23:50:59.281Z,99.90
2018-01-08T23:53:26.760Z,99.90
2018-01-08T23:55:54.245Z,99.90
2018-01-08T23:58:21.702Z,99.90
